createdAt,value
2023-04-09T00:00:11.110Z,50.877182
2023-04-09T00:01:11.108Z,50.877186
2023-04-09T00:02:11.152Z,50.877201
2023-04-09T00:03:12.183Z,50.877205
2023-04-09T00:04:11.135Z,50.877205
2023-04-09T00:05:11.069Z,50.877205
2023-04-09T00:06:11.056Z,50.877201
2023-04-09T00:07:11.066Z,50.877193
2023-04-09T00:08:11.060Z,50.877235
2023-04-09T00:09:11.017Z,50.877205
2023-04-09T00:10:10.992Z,50.877167
2023-04-09T00:11:11.005Z,50.877197
2023-04-09T00:12:10.991Z,50.877228
2023-04-09T00:13:11.030Z,50.877197
2023-04-09T00:14:10.996Z,50.877209
2023-04-09T00:15:15.070Z,50.877201
2023-04-09T00:16:12.979Z,50.877220
2023-04-09T00:17:11.920Z,50.877235
2023-04-09T00:18:10.925Z,50.877247
2023-04-09T00:19:10.944Z,50.877258
2023-04-09T00:20:10.917Z,50.877190
2023-04-09T00:21:10.916Z,50.877163
2023-04-09T00:22:10.952Z,50.877216
2023-04-09T00:23:12.502Z,50.877163
2023-04-09T00:24:10.884Z,50.877140
2023-04-09T00:25:10.903Z,50.877071
2023-04-09T00:26:10.855Z,50.876911
2023-04-09T00:27:10.879Z,50.876862
2023-04-09T00:28:10.841Z,50.876766
2023-04-09T00:29:10.860Z,50.876854
2023-04-09T00:30:10.809Z,50.876789
2023-04-09T00:31:10.892Z,50.876789
2023-04-09T00:32:10.802Z,50.876789
2023-04-09T00:33:10.795Z,50.877205
2023-04-09T00:34:10.774Z,50.877277
2023-04-09T00:35:10.869Z,50.877266
2023-04-09T00:36:10.780Z,50.877239
2023-04-09T00:37:10.790Z,50.877247
2023-04-09T00:38:10.722Z,50.877197
2023-04-09T00:39:10.757Z,50.877243
2023-04-09T00:40:10.719Z,50.877281
2023-04-09T00:41:10.700Z,50.877373
2023-04-09T00:42:10.696Z,50.877331
2023-04-09T00:43:10.688Z,50.877296
2023-04-09T00:44:10.688Z,50.877266
2023-04-09T00:45:10.695Z,50.877262
2023-04-09T00:46:10.733Z,50.877239
2023-04-09T00:47:10.671Z,50.877213
2023-04-09T00:48:10.636Z,50.877167
2023-04-09T00:49:10.634Z,50.877174
2023-04-09T00:50:10.637Z,50.877167
2023-04-09T00:51:10.632Z,50.877190
2023-04-09T00:52:10.666Z,50.877232
2023-04-09T00:53:10.637Z,50.877232
2023-04-09T00:54:10.590Z,50.877296
2023-04-09T00:55:10.606Z,50.877201
2023-04-09T00:56:10.593Z,50.877254
2023-04-09T00:57:10.544Z,50.877247
2023-04-09T00:58:10.586Z,50.877247
2023-04-09T00:59:10.563Z,50.877243
2023-04-09T01:00:10.547Z,50.877041
2023-04-09T01:01:10.577Z,50.877167
2023-04-09T01:02:10.680Z,50.877209
2023-04-09T01:03:10.608Z,50.877254
2023-04-09T01:04:10.519Z,50.877216
2023-04-09T01:05:10.480Z,50.877243
2023-04-09T01:06:10.496Z,50.877205
2023-04-09T01:07:10.487Z,50.877209
2023-04-09T01:08:10.447Z,50.877380
2023-04-09T01:09:10.532Z,50.877281
2023-04-09T01:10:10.448Z,50.877216
2023-04-09T01:11:10.442Z,50.877224
2023-04-09T01:12:10.426Z,50.877392
2023-04-09T01:13:10.412Z,50.877220
2023-04-09T01:14:10.442Z,50.877216
2023-04-09T01:15:10.470Z,50.877190
2023-04-09T01:16:10.415Z,50.877182
2023-04-09T01:17:10.416Z,50.877186
2023-04-09T01:18:10.338Z,50.877193
2023-04-09T01:19:10.333Z,50.877193
2023-04-09T01:20:10.346Z,50.877197
2023-04-09T01:21:10.329Z,50.877171
2023-04-09T01:22:10.320Z,50.877163
2023-04-09T01:23:10.318Z,50.877190
2023-04-09T01:24:10.310Z,50.877239
2023-04-09T01:25:10.316Z,50.877224
2023-04-09T01:26:10.300Z,50.877266
2023-04-09T01:27:10.264Z,50.877293
2023-04-09T01:28:10.272Z,50.877270
2023-04-09T01:29:10.238Z,50.877232
2023-04-09T01:30:10.295Z,50.877213
2023-04-09T01:31:10.279Z,50.877228
2023-04-09T01:32:10.242Z,50.877239
2023-04-09T01:33:10.212Z,50.877266
2023-04-09T01:34:10.216Z,50.877293
2023-04-09T01:35:10.208Z,50.877228
2023-04-09T01:36:10.240Z,50.877262
2023-04-09T01:37:10.159Z,50.877243
2023-04-09T01:38:10.170Z,50.877224
2023-04-09T01:39:10.153Z,50.877247
2023-04-09T01:40:10.182Z,50.877220
2023-04-09T01:41:10.138Z,50.877266
2023-04-09T01:42:10.127Z,50.877277
2023-04-09T01:43:10.180Z,50.877304
2023-04-09T01:44:10.127Z,50.877308
2023-04-09T01:45:10.108Z,50.877312
2023-04-09T01:46:10.103Z,50.877319
2023-04-09T01:47:10.117Z,50.877266
2023-04-09T01:48:10.071Z,50.877220
2023-04-09T01:49:10.101Z,50.877220
2023-04-09T01:50:10.042Z,50.877262
2023-04-09T01:51:10.056Z,50.877247
2023-04-09T01:52:10.074Z,50.877239
2023-04-09T01:53:10.079Z,50.877228
2023-04-09T01:54:10.034Z,50.877251
2023-04-09T01:55:11.013Z,50.877274
2023-04-09T01:56:09.973Z,50.877262
2023-04-09T01:57:10.000Z,50.877216
2023-04-09T01:58:09.999Z,50.877205
2023-04-09T01:59:09.968Z,50.877224
2023-04-09T02:00:09.979Z,50.877239
2023-04-09T02:01:09.977Z,50.877258
2023-04-09T02:02:10.084Z,50.877274
2023-04-09T02:03:10.996Z,50.877254
2023-04-09T02:04:09.937Z,50.877216
2023-04-09T02:05:09.920Z,50.877247
2023-04-09T02:06:09.892Z,50.877277
2023-04-09T02:07:09.912Z,50.877258
2023-04-09T02:08:09.918Z,50.877224
2023-04-09T02:09:09.869Z,50.877216
2023-04-09T02:10:09.874Z,50.877213
2023-04-09T02:11:09.873Z,50.877209
2023-04-09T02:12:09.827Z,50.877228
2023-04-09T02:13:09.845Z,50.877232
2023-04-09T02:14:09.830Z,50.877239
2023-04-09T02:15:09.883Z,50.877254
2023-04-09T02:16:09.844Z,50.877254
2023-04-09T02:17:09.835Z,50.877205
2023-04-09T02:18:09.771Z,50.877159
2023-04-09T02:19:09.779Z,50.877190
2023-04-09T02:20:09.742Z,50.877174
2023-04-09T02:21:09.759Z,50.877174
2023-04-09T02:22:09.784Z,50.877190
2023-04-09T02:23:09.739Z,50.877190
2023-04-09T02:24:09.729Z,50.877201
2023-04-09T02:25:09.732Z,50.877216
2023-04-09T02:26:09.729Z,50.877213
2023-04-09T02:27:09.701Z,50.877216
2023-04-09T02:28:36.117Z,50.877190
2023-04-09T02:29:09.675Z,50.877193
2023-04-09T02:30:09.693Z,50.877201
2023-04-09T02:31:09.715Z,50.877201
2023-04-09T02:32:09.668Z,50.877205
2023-04-09T02:33:09.658Z,50.877220
2023-04-09T02:34:09.628Z,50.877182
2023-04-09T02:35:09.624Z,50.877182
2023-04-09T02:36:09.688Z,50.877155
2023-04-09T02:37:09.588Z,50.877186
2023-04-09T02:38:09.627Z,50.877201
2023-04-09T02:39:09.567Z,50.877178
2023-04-09T02:40:09.616Z,50.877201
2023-04-09T02:41:09.653Z,50.877190
2023-04-09T02:42:09.564Z,50.877201
2023-04-09T02:43:09.539Z,50.877216
2023-04-09T02:44:09.549Z,50.877209
2023-04-09T02:45:09.534Z,50.877197
2023-04-09T02:46:09.506Z,50.877186
2023-04-09T02:47:09.492Z,50.877182
2023-04-09T02:48:09.493Z,50.877182
2023-04-09T02:49:09.578Z,50.877193
2023-04-09T02:50:09.458Z,50.877182
2023-04-09T02:51:09.463Z,50.877186
2023-04-09T02:52:09.474Z,50.877174
2023-04-09T02:53:09.464Z,50.877167
2023-04-09T02:54:09.451Z,50.877155
2023-04-09T02:55:09.438Z,50.877159
2023-04-09T02:56:09.406Z,50.877182
2023-04-09T02:57:09.454Z,50.877174
2023-04-09T02:58:09.386Z,50.877197
2023-04-09T02:59:09.385Z,50.877174
2023-04-09T03:00:09.370Z,50.877167
2023-04-09T03:01:09.441Z,50.877140
2023-04-09T03:02:09.448Z,50.877125
2023-04-09T03:03:09.544Z,50.877155
2023-04-09T03:04:09.364Z,50.877155
2023-04-09T03:05:09.329Z,50.877151
2023-04-09T03:06:09.322Z,50.877178
2023-04-09T03:07:09.371Z,50.877182
2023-04-09T03:08:09.326Z,50.877167
2023-04-09T03:09:09.292Z,50.877174
2023-04-09T03:10:09.266Z,50.877182
2023-04-09T03:11:09.268Z,50.877171
2023-04-09T03:12:09.281Z,50.877178
2023-04-09T03:13:09.297Z,50.877197
2023-04-09T03:14:09.272Z,50.877186
2023-04-09T03:15:09.232Z,50.877167
2023-04-09T03:16:09.270Z,50.877159
2023-04-09T03:17:09.222Z,50.877174
2023-04-09T03:18:09.213Z,50.877178
2023-04-09T03:19:09.190Z,50.877186
2023-04-09T03:20:09.222Z,50.877174
2023-04-09T03:21:09.186Z,50.877182
2023-04-09T03:22:09.196Z,50.877178
2023-04-09T03:23:09.188Z,50.877190
2023-04-09T03:24:09.178Z,50.877174
2023-04-09T03:25:09.142Z,50.877167
2023-04-09T03:26:09.130Z,50.877159
2023-04-09T03:27:09.138Z,50.877167
2023-04-09T03:28:09.099Z,50.877148
2023-04-09T03:29:09.137Z,50.877155
2023-04-09T03:30:09.074Z,50.877178
2023-04-09T03:31:09.107Z,50.877182
2023-04-09T03:32:09.072Z,50.877186
2023-04-09T03:33:09.043Z,50.877171
2023-04-09T03:34:09.068Z,50.877182
2023-04-09T03:35:09.029Z,50.877151
2023-04-09T03:36:09.134Z,50.877151
2023-04-09T03:37:09.023Z,50.877174
2023-04-09T03:38:09.023Z,50.877186
2023-04-09T03:39:09.021Z,50.877205
2023-04-09T03:40:08.969Z,50.877186
2023-04-09T03:41:08.989Z,50.877167
2023-04-09T03:42:08.999Z,50.877174
2023-04-09T03:43:08.953Z,50.877163
2023-04-09T03:44:09.003Z,50.877205
2023-04-09T03:45:08.949Z,50.877186
2023-04-09T03:46:08.983Z,50.877167
2023-04-09T03:47:08.959Z,50.877186
2023-04-09T03:48:08.966Z,50.877167
2023-04-09T03:49:08.894Z,50.877163
2023-04-09T03:50:08.921Z,50.877167
2023-04-09T03:51:09.920Z,50.877190
2023-04-09T03:52:08.920Z,50.877186
2023-04-09T03:53:08.890Z,50.877205
2023-04-09T03:54:08.871Z,50.877163
2023-04-09T03:55:08.864Z,50.877182
2023-04-09T03:56:08.831Z,50.877186
2023-04-09T03:57:08.831Z,50.877201
2023-04-09T03:58:08.792Z,50.877186
2023-04-09T03:59:08.873Z,50.877171
2023-04-09T04:00:08.796Z,50.877167
2023-04-09T04:01:08.793Z,50.877171
2023-04-09T04:02:08.856Z,50.877167
2023-04-09T04:03:08.880Z,50.877171
2023-04-09T04:04:08.868Z,50.877171
2023-04-09T04:05:08.780Z,50.877151
2023-04-09T04:06:08.734Z,50.877178
2023-04-09T04:07:08.756Z,50.877182
2023-04-09T04:08:08.706Z,50.877186
2023-04-09T04:09:08.735Z,50.877201
2023-04-09T04:10:08.690Z,50.877190
2023-04-09T04:11:08.740Z,50.877167
2023-04-09T04:12:08.707Z,50.877148
2023-04-09T04:13:08.765Z,50.877171
2023-04-09T04:14:08.648Z,50.877190
2023-04-09T04:15:08.671Z,50.877193
2023-04-09T04:16:08.675Z,50.877190
2023-04-09T04:17:08.670Z,50.877182
2023-04-09T04:18:08.648Z,50.877193
2023-04-09T04:19:08.606Z,50.877190
2023-04-09T04:20:08.606Z,50.877163
2023-04-09T04:21:08.618Z,50.877151
2023-04-09T04:22:08.611Z,50.877155
2023-04-09T04:23:08.575Z,50.877182
2023-04-09T04:24:08.580Z,50.877171
2023-04-09T04:25:08.580Z,50.877136
2023-04-09T04:26:08.526Z,50.877167
2023-04-09T04:27:08.554Z,50.877167
2023-04-09T04:28:08.499Z,50.877178
2023-04-09T04:29:08.504Z,50.877174
2023-04-09T04:30:08.536Z,50.877224
2023-04-09T04:31:08.484Z,50.877213
2023-04-09T04:32:08.497Z,50.877213
2023-04-09T04:33:09.466Z,50.877197
2023-04-09T04:34:08.477Z,50.877197
2023-04-09T04:35:08.516Z,50.877201
2023-04-09T04:36:08.431Z,50.877182
2023-04-09T04:37:08.416Z,50.877159
2023-04-09T04:38:08.415Z,50.877159
2023-04-09T04:39:08.423Z,50.877155
2023-04-09T04:40:08.440Z,50.877178
2023-04-09T04:41:08.445Z,50.877159
2023-04-09T04:42:08.370Z,50.877178
2023-04-09T04:43:08.371Z,50.877186
2023-04-09T04:44:08.408Z,50.877197
2023-04-09T04:45:08.369Z,50.877171
2023-04-09T04:46:08.396Z,50.877190
2023-04-09T04:47:08.373Z,50.877190
2023-04-09T04:48:08.350Z,50.877182
2023-04-09T04:49:08.333Z,50.877182
2023-04-09T04:50:08.338Z,50.877197
2023-04-09T04:51:08.294Z,50.877197
2023-04-09T04:52:08.282Z,50.877190
2023-04-09T04:53:08.292Z,50.877205
2023-04-09T04:54:08.288Z,50.877186
2023-04-09T04:55:08.291Z,50.877205
2023-04-09T04:56:08.285Z,50.877178
2023-04-09T04:57:08.224Z,50.877178
2023-04-09T04:58:08.207Z,50.877197
2023-04-09T04:59:08.244Z,50.877205
2023-04-09T05:00:08.212Z,50.877197
2023-04-09T05:01:08.350Z,50.877209
2023-04-09T05:02:08.257Z,50.877193
2023-04-09T05:03:08.239Z,50.877216
2023-04-09T05:04:08.201Z,50.877228
2023-04-09T05:05:08.159Z,50.877216
2023-04-09T05:06:08.160Z,50.877216
2023-04-09T05:07:08.141Z,50.877213
2023-04-09T05:08:08.149Z,50.877205
2023-04-09T05:09:08.148Z,50.877220
2023-04-09T05:10:08.099Z,50.877220
2023-04-09T05:11:08.108Z,50.877216
2023-04-09T05:12:08.092Z,50.877220
2023-04-09T05:13:08.119Z,50.877193
2023-04-09T05:14:08.118Z,50.877216
2023-04-09T05:15:08.082Z,50.877224
2023-04-09T05:16:08.076Z,50.877209
2023-04-09T05:17:08.043Z,50.877190
2023-04-09T05:18:08.096Z,50.877209
2023-04-09T05:19:08.023Z,50.877224
2023-04-09T05:20:08.018Z,50.877224
2023-04-09T05:21:08.030Z,50.877205
2023-04-09T05:22:08.044Z,50.877193
2023-04-09T05:23:07.991Z,50.877193
2023-04-09T05:24:07.988Z,50.877205
2023-04-09T05:25:07.968Z,50.877220
2023-04-09T05:26:07.956Z,50.877213
2023-04-09T05:27:07.949Z,50.877209
2023-04-09T05:28:07.972Z,50.877209
2023-04-09T05:29:08.963Z,50.877201
2023-04-09T05:30:07.935Z,50.877197
2023-04-09T05:31:07.946Z,50.877201
2023-04-09T05:32:07.915Z,50.877193
2023-04-09T05:33:07.918Z,50.877193
2023-04-09T05:34:07.897Z,50.877213
2023-04-09T05:35:07.910Z,50.877216
2023-04-09T05:36:07.914Z,50.877197
2023-04-09T05:37:07.934Z,50.877193
2023-04-09T05:38:07.861Z,50.877190
2023-04-09T05:39:07.810Z,50.877213
2023-04-09T05:40:07.825Z,50.877213
2023-04-09T05:41:07.812Z,50.877213
2023-04-09T05:42:07.790Z,50.877209
2023-04-09T05:43:07.821Z,50.877220
2023-04-09T05:44:07.809Z,50.877178
2023-04-09T05:45:07.770Z,50.877209
2023-04-09T05:46:07.845Z,50.877148
2023-04-09T05:47:07.776Z,50.877197
2023-04-09T05:48:07.778Z,50.877197
2023-04-09T05:49:07.721Z,50.877178
2023-04-09T05:50:07.757Z,50.877171
2023-04-09T05:51:07.730Z,50.877144
2023-04-09T05:52:07.740Z,50.877174
2023-04-09T05:53:07.693Z,50.877167
2023-04-09T05:54:07.769Z,50.877209
2023-04-09T05:55:07.693Z,50.877216
2023-04-09T05:56:07.691Z,50.877216
2023-04-09T05:57:07.689Z,50.877205
2023-04-09T05:58:07.642Z,50.877216
2023-04-09T05:59:07.678Z,50.877220
2023-04-09T06:00:07.650Z,50.877205
2023-04-09T06:01:07.621Z,50.877163
2023-04-09T06:02:07.678Z,50.877171
2023-04-09T06:03:07.716Z,50.877167
2023-04-09T06:04:07.699Z,50.877167
2023-04-09T06:05:07.598Z,50.877178
2023-04-09T06:06:07.563Z,50.877140
2023-04-09T06:07:07.616Z,50.877171
2023-04-09T06:08:07.554Z,50.877197
2023-04-09T06:09:07.581Z,50.877190
2023-04-09T06:10:07.539Z,50.877182
2023-04-09T06:11:07.534Z,50.877190
2023-04-09T06:12:07.498Z,50.877205
2023-04-09T06:13:07.535Z,50.877174
2023-04-09T06:14:07.489Z,50.877235
2023-04-09T06:15:07.507Z,50.877251
2023-04-09T06:16:07.554Z,50.877205
2023-04-09T06:17:07.478Z,50.877197
2023-04-09T06:18:07.503Z,50.877193
2023-04-09T06:19:07.462Z,50.877216
2023-04-09T06:20:07.417Z,50.877178
2023-04-09T06:21:07.445Z,50.877182
2023-04-09T06:22:07.433Z,50.877224
2023-04-09T06:23:07.410Z,50.877254
2023-04-09T06:24:07.431Z,50.877232
2023-04-09T06:25:07.404Z,50.877186
2023-04-09T06:26:07.378Z,50.877213
2023-04-09T06:27:07.378Z,50.877197
2023-04-09T06:28:07.356Z,50.877216
2023-04-09T06:29:07.355Z,50.877216
2023-04-09T06:30:07.339Z,50.877190
2023-04-09T06:31:07.357Z,50.877125
2023-04-09T06:32:07.349Z,50.877136
2023-04-09T06:33:07.340Z,50.877125
2023-04-09T06:34:07.292Z,50.877197
2023-04-09T06:35:08.755Z,50.877228
2023-04-09T06:36:07.366Z,50.877193
2023-04-09T06:37:07.320Z,50.877090
2023-04-09T06:38:07.244Z,50.877090
2023-04-09T06:39:07.266Z,50.877182
2023-04-09T06:40:07.247Z,50.877201
2023-04-09T06:41:07.264Z,50.877220
2023-04-09T06:42:07.246Z,50.877224
2023-04-09T06:43:07.202Z,50.877182
2023-04-09T06:44:07.228Z,50.877174
2023-04-09T06:45:07.183Z,50.877247
2023-04-09T06:46:07.284Z,50.877224
2023-04-09T06:47:07.195Z,50.877075
2023-04-09T06:48:07.222Z,50.877087
2023-04-09T06:49:07.175Z,50.877045
2023-04-09T06:50:07.186Z,50.877117
2023-04-09T06:51:07.153Z,50.877216
2023-04-09T06:52:07.122Z,50.877186
2023-04-09T06:53:07.105Z,50.877190
2023-04-09T06:54:07.111Z,50.877193
2023-04-09T06:55:07.092Z,50.877182
2023-04-09T06:56:07.151Z,50.877232
2023-04-09T06:57:07.159Z,50.877235
2023-04-09T06:58:07.144Z,50.877174
2023-04-09T06:59:07.039Z,50.877174
2023-04-09T07:00:07.034Z,50.877182
2023-04-09T07:01:07.040Z,50.877174
2023-04-09T07:02:07.088Z,50.877163
2023-04-09T07:03:07.101Z,50.877167
2023-04-09T07:04:07.039Z,50.877159
2023-04-09T07:05:07.013Z,50.877125
2023-04-09T07:06:07.001Z,50.877205
2023-04-09T07:07:07.041Z,50.877190
2023-04-09T07:08:06.965Z,50.877190
2023-04-09T07:09:06.964Z,50.877167
2023-04-09T07:10:06.945Z,50.877056
2023-04-09T07:11:06.941Z,50.876995
2023-04-09T07:12:06.941Z,50.876888
2023-04-09T07:13:06.925Z,50.876926
2023-04-09T07:14:06.925Z,50.876984
2023-04-09T07:15:06.937Z,50.876991
2023-04-09T07:16:06.924Z,50.876915
2023-04-09T07:17:06.908Z,50.876869
2023-04-09T07:18:06.885Z,50.876884
2023-04-09T07:19:06.858Z,50.876858
2023-04-09T07:20:06.850Z,50.876911
2023-04-09T07:21:06.865Z,50.876915
2023-04-09T07:22:06.858Z,50.876884
2023-04-09T07:23:06.803Z,50.876919
2023-04-09T07:24:06.814Z,50.876816
2023-04-09T07:25:06.817Z,50.876747
2023-04-09T07:26:06.810Z,50.876694
2023-04-09T07:27:06.782Z,50.876690
2023-04-09T07:28:06.790Z,50.876671
2023-04-09T07:29:06.761Z,50.876598
2023-04-09T07:30:06.781Z,50.876598
2023-04-09T07:31:06.757Z,50.876564
2023-04-09T07:32:06.795Z,50.876560
2023-04-09T07:33:06.793Z,50.876652
2023-04-09T07:34:06.712Z,50.876652
2023-04-09T07:35:06.731Z,50.876652
2023-04-09T07:36:06.767Z,50.876652
2023-04-09T07:37:06.745Z,50.876652
2023-04-09T07:38:06.670Z,50.876652
2023-04-09T07:39:06.685Z,50.876652
2023-04-09T07:40:06.664Z,50.876652
2023-04-09T07:41:06.702Z,50.876652
2023-04-09T07:42:06.620Z,50.876652
2023-04-09T07:43:06.616Z,50.876652
2023-04-09T07:44:06.642Z,50.876652
2023-04-09T07:45:06.632Z,50.876652
2023-04-09T07:46:06.621Z,50.876652
2023-04-09T07:47:06.638Z,50.877129
2023-04-09T07:48:06.592Z,50.877159
2023-04-09T07:49:06.585Z,50.877148
2023-04-09T07:50:06.532Z,50.877132
2023-04-09T07:51:06.555Z,50.877125
2023-04-09T07:52:06.556Z,50.877151
2023-04-09T07:53:06.528Z,50.877151
2023-04-09T07:54:06.526Z,50.877136
2023-04-09T07:55:06.525Z,50.877140
2023-04-09T07:56:06.538Z,50.877132
2023-04-09T07:57:06.513Z,50.877125
2023-04-09T07:58:06.509Z,50.877178
2023-04-09T07:59:06.609Z,50.877190
2023-04-09T08:00:06.472Z,50.877190
2023-04-09T08:01:06.446Z,50.877190
2023-04-09T08:02:06.535Z,50.877171
2023-04-09T08:03:06.652Z,50.877178
2023-04-09T08:04:06.680Z,50.877186
2023-04-09T08:05:06.464Z,50.877205
2023-04-09T08:06:06.410Z,50.877178
2023-04-09T08:07:06.435Z,50.877178
2023-04-09T08:08:06.405Z,50.877178
2023-04-09T08:09:06.381Z,50.877197
2023-04-09T08:10:06.378Z,50.877197
2023-04-09T08:11:06.386Z,50.877190
2023-04-09T08:12:06.348Z,50.877174
2023-04-09T08:13:06.342Z,50.877197
2023-04-09T08:14:06.365Z,50.877171
2023-04-09T08:15:06.300Z,50.877155
2023-04-09T08:16:06.341Z,50.877167
2023-04-09T08:17:06.291Z,50.877186
2023-04-09T08:18:06.374Z,50.877205
2023-04-09T08:19:06.283Z,50.877209
2023-04-09T08:20:06.274Z,50.877182
2023-04-09T08:21:06.290Z,50.877190
2023-04-09T08:22:06.293Z,50.877205
2023-04-09T08:23:06.270Z,50.877232
2023-04-09T08:24:06.270Z,50.877209
2023-04-09T08:25:06.238Z,50.877197
2023-04-09T08:26:06.212Z,50.877193
2023-04-09T08:27:06.203Z,50.877201
2023-04-09T08:28:06.195Z,50.877224
2023-04-09T08:29:38.093Z,50.877224
2023-04-09T08:30:06.173Z,50.877216
2023-04-09T08:31:06.164Z,50.877186
2023-04-09T08:32:06.329Z,50.877151
2023-04-09T08:33:06.254Z,50.877167
2023-04-09T08:34:06.111Z,50.877197
2023-04-09T08:35:06.106Z,50.877159
2023-04-09T08:36:06.238Z,50.877201
2023-04-09T08:37:06.106Z,50.877197
2023-04-09T08:38:06.103Z,50.877186
2023-04-09T08:39:06.172Z,50.877140
2023-04-09T08:40:06.078Z,50.877171
2023-04-09T08:41:06.067Z,50.877140
2023-04-09T08:42:06.086Z,50.877163
2023-04-09T08:43:06.075Z,50.877197
2023-04-09T08:44:06.017Z,50.877209
2023-04-09T08:45:06.013Z,50.877197
2023-04-09T08:46:06.059Z,50.877186
2023-04-09T08:47:06.023Z,50.877205
2023-04-09T08:48:06.111Z,50.877213
2023-04-09T08:49:05.976Z,50.877205
2023-04-09T08:50:05.996Z,50.877159
2023-04-09T08:51:05.974Z,50.877171
2023-04-09T08:52:05.987Z,50.877205
2023-04-09T08:53:05.962Z,50.877182
2023-04-09T08:54:05.946Z,50.877262
2023-04-09T08:55:05.955Z,50.877213
2023-04-09T08:56:05.923Z,50.877182
2023-04-09T08:57:05.901Z,50.877171
2023-04-09T08:58:05.958Z,50.877239
2023-04-09T08:59:05.924Z,50.877235
2023-04-09T09:00:05.892Z,50.877209
2023-04-09T09:01:05.978Z,50.877213
2023-04-09T09:02:05.959Z,50.877205
2023-04-09T09:03:06.002Z,50.877213
2023-04-09T09:04:05.900Z,50.877209
2023-04-09T09:05:05.856Z,50.877216
2023-04-09T09:06:05.810Z,50.877216
2023-04-09T09:07:05.800Z,50.877174
2023-04-09T09:08:05.824Z,50.877209
2023-04-09T09:09:05.815Z,50.877155
2023-04-09T09:10:05.801Z,50.877182
2023-04-09T09:11:05.807Z,50.877171
2023-04-09T09:12:05.771Z,50.877197
2023-04-09T09:13:05.749Z,50.877281
2023-04-09T09:14:05.778Z,50.877216
2023-04-09T09:15:05.719Z,50.877319
2023-04-09T09:16:05.727Z,50.877224
2023-04-09T09:17:05.776Z,50.877209
2023-04-09T09:18:05.724Z,50.877163
2023-04-09T09:19:05.705Z,50.877182
2023-04-09T09:20:05.676Z,50.877216
2023-04-09T09:21:05.693Z,50.877148
2023-04-09T09:22:05.642Z,50.877193
2023-04-09T09:23:05.660Z,50.877224
2023-04-09T09:24:05.630Z,50.877182
2023-04-09T09:25:05.647Z,50.877186
2023-04-09T09:26:05.621Z,50.877213
2023-04-09T09:27:05.611Z,50.877205
2023-04-09T09:28:05.703Z,50.877190
2023-04-09T09:29:05.651Z,50.877197
2023-04-09T09:30:05.609Z,50.877216
2023-04-09T09:31:05.595Z,50.877174
2023-04-09T09:32:05.587Z,50.877216
2023-04-09T09:33:05.533Z,50.877171
2023-04-09T09:34:05.527Z,50.877193
2023-04-09T09:35:05.573Z,50.877205
2023-04-09T09:36:05.565Z,50.877224
2023-04-09T09:37:06.826Z,50.877171
2023-04-09T09:38:05.518Z,50.877186
2023-04-09T09:39:05.498Z,50.877155
2023-04-09T09:40:05.523Z,50.877163
2023-04-09T09:41:05.527Z,50.877144
2023-04-09T09:42:05.499Z,50.877186
2023-04-09T09:43:05.466Z,50.877193
2023-04-09T09:44:05.468Z,50.877201
2023-04-09T09:45:05.424Z,50.877171
2023-04-09T09:46:05.466Z,50.877178
2023-04-09T09:47:05.497Z,50.877209
2023-04-09T09:48:05.461Z,50.877213
2023-04-09T09:49:05.414Z,50.877167
2023-04-09T09:50:05.417Z,50.877182
2023-04-09T09:51:05.372Z,50.877159
2023-04-09T09:52:05.396Z,50.877129
2023-04-09T09:53:05.405Z,50.877151
2023-04-09T09:54:05.395Z,50.877182
2023-04-09T09:55:05.358Z,50.877171
2023-04-09T09:56:05.328Z,50.877174
2023-04-09T09:57:05.341Z,50.877190
2023-04-09T09:58:05.367Z,50.877178
2023-04-09T09:59:05.289Z,50.877201
2023-04-09T10:00:05.320Z,50.877178
2023-04-09T10:01:05.330Z,50.877167
2023-04-09T10:02:05.457Z,50.877132
2023-04-09T10:03:05.504Z,50.877155
2023-04-09T10:04:05.397Z,50.877190
2023-04-09T10:05:05.236Z,50.877182
2023-04-09T10:06:05.275Z,50.877216
2023-04-09T10:07:05.289Z,50.877132
2023-04-09T10:08:05.248Z,50.877159
2023-04-09T10:09:05.221Z,50.877136
2023-04-09T10:10:05.219Z,50.877281
2023-04-09T10:11:05.213Z,50.877197
2023-04-09T10:12:05.176Z,50.877220
2023-04-09T10:13:05.254Z,50.877148
2023-04-09T10:14:05.193Z,50.877213
2023-04-09T10:15:05.187Z,50.877262
2023-04-09T10:16:05.196Z,50.877262
2023-04-09T10:17:05.140Z,50.877186
2023-04-09T10:18:05.224Z,50.877132
2023-04-09T10:19:05.127Z,50.877178
2023-04-09T10:20:05.110Z,50.877270
2023-04-09T10:21:05.166Z,50.877201
2023-04-09T10:22:05.065Z,50.877190
2023-04-09T10:23:05.110Z,50.877167
2023-04-09T10:24:05.082Z,50.877213
2023-04-09T10:25:05.040Z,50.877201
2023-04-09T10:26:05.022Z,50.877213
2023-04-09T10:27:05.059Z,50.877190
2023-04-09T10:28:05.020Z,50.877220
2023-04-09T10:29:05.028Z,50.877182
2023-04-09T10:30:05.010Z,50.877209
2023-04-09T10:31:05.034Z,50.877193
2023-04-09T10:32:05.018Z,50.877186
2023-04-09T10:33:04.971Z,50.877243
2023-04-09T10:34:04.972Z,50.877247
2023-04-09T10:35:04.986Z,50.877228
2023-04-09T10:36:04.975Z,50.877262
2023-04-09T10:37:04.925Z,50.877224
2023-04-09T10:38:04.920Z,50.877201
2023-04-09T10:39:04.916Z,50.877186
2023-04-09T10:40:04.965Z,50.877197
2023-04-09T10:41:04.956Z,50.877285
2023-04-09T10:42:04.967Z,50.877300
2023-04-09T10:43:04.894Z,50.877247
2023-04-09T10:44:04.878Z,50.877216
2023-04-09T10:45:04.881Z,50.877197
2023-04-09T10:46:04.945Z,50.877178
2023-04-09T10:47:04.872Z,50.877209
2023-04-09T10:48:04.883Z,50.877190
2023-04-09T10:49:04.809Z,50.877209
2023-04-09T10:50:04.844Z,50.877186
2023-04-09T10:51:04.791Z,50.877190
2023-04-09T10:52:04.819Z,50.877163
2023-04-09T10:53:04.794Z,50.877190
2023-04-09T10:54:04.784Z,50.877201
2023-04-09T10:55:04.782Z,50.877182
2023-04-09T10:56:04.766Z,50.877174
2023-04-09T10:57:05.733Z,50.877174
2023-04-09T10:58:04.724Z,50.877186
2023-04-09T10:59:04.717Z,50.877174
2023-04-09T11:00:04.746Z,50.877190
2023-04-09T11:01:04.673Z,50.877159
2023-04-09T11:02:04.703Z,50.877167
2023-04-09T11:03:04.872Z,50.877190
2023-04-09T11:04:04.704Z,50.877190
2023-04-09T11:05:04.665Z,50.877197
2023-04-09T11:06:05.649Z,50.877197
2023-04-09T11:07:04.617Z,50.877174
2023-04-09T11:08:04.645Z,50.877186
2023-04-09T11:09:04.639Z,50.877174
2023-04-09T11:10:04.604Z,50.877174
2023-04-09T11:11:04.625Z,50.877174
2023-04-09T11:12:04.607Z,50.877171
2023-04-09T11:13:04.593Z,50.877140
2023-04-09T11:14:04.607Z,50.877155
2023-04-09T11:15:04.575Z,50.877159
2023-04-09T11:16:04.565Z,50.877178
2023-04-09T11:17:04.537Z,50.877151
2023-04-09T11:18:04.562Z,50.877182
2023-04-09T11:19:04.523Z,50.877178
2023-04-09T11:20:04.490Z,50.877193
2023-04-09T11:21:04.538Z,50.877190
2023-04-09T11:22:04.481Z,50.877193
2023-04-09T11:23:04.546Z,50.877197
2023-04-09T11:24:04.452Z,50.877209